sensor_id;sensor_type;location;lat;lon;timestamp;pressure;altitude;pressure_sealevel;temperature;humidity
67029;BME280;53934;52.142;11.738;2022-09-09T00:00:54;100500.34;;;15.70;96.07
67029;BME280;53934;52.142;11.738;2022-09-09T00:03:22;100497.22;;;15.76;95.06
67029;BME280;53934;52.142;11.738;2022-09-09T00:05:54;100499.13;;;15.85;95.10
67029;BME280;53934;52.142;11.738;2022-09-09T00:08:24;100508.84;;;15.63;95.96
67029;BME280;53934;52.142;11.738;2022-09-09T00:10:55;100510.78;;;15.83;95.70
67029;BME280;53934;52.142;11.738;2022-09-09T00:13:25;100509.84;;;16.06;93.44
67029;BME280;53934;52.142;11.738;2022-09-09T00:15:55;100497.56;;;15.83;94.09
67029;BME280;53934;52.142;11.738;2022-09-09T00:18:24;100505.88;;;15.89;94.11
67029;BME280;53934;52.142;11.738;2022-09-09T00:20:56;100504.81;;;16.03;92.30
67029;BME280;53934;52.142;11.738;2022-09-09T00:23:24;100502.53;;;16.10;91.95
67029;BME280;53934;52.142;11.738;2022-09-09T00:25:54;100505.25;;;15.86;93.79
67029;BME280;53934;52.142;11.738;2022-09-09T00:28:24;100504.44;;;16.19;90.88
67029;BME280;53934;52.142;11.738;2022-09-09T00:30:52;100511.75;;;16.37;89.34
67029;BME280;53934;52.142;11.738;2022-09-09T00:33:19;100503.97;;;16.36;88.55
67029;BME280;53934;52.142;11.738;2022-09-09T00:35:48;100495.66;;;16.63;86.67
67029;BME280;53934;52.142;11.738;2022-09-09T00:38:16;100506.72;;;16.23;88.72
67029;BME280;53934;52.142;11.738;2022-09-09T00:40:45;100509.63;;;16.20;89.11
67029;BME280;53934;52.142;11.738;2022-09-09T00:43:21;100500.97;;;16.18;88.60
67029;BME280;53934;52.142;11.738;2022-09-09T00:48:33;100495.44;;;16.10;88.76
67029;BME280;53934;52.142;11.738;2022-09-09T00:51:02;100493.50;;;16.01;89.01
67029;BME280;53934;52.142;11.738;2022-09-09T00:53:34;100487.84;;;15.94;88.25
67029;BME280;53934;52.142;11.738;2022-09-09T00:56:07;100485.44;;;15.91;88.78
67029;BME280;53934;52.142;11.738;2022-09-09T00:58:35;100487.19;;;15.57;91.08
67029;BME280;53934;52.142;11.738;2022-09-09T01:01:02;100492.41;;;15.70;89.54
67029;BME280;53934;52.142;11.738;2022-09-09T01:03:33;100490.09;;;15.66;89.91
67029;BME280;53934;52.142;11.738;2022-09-09T01:06:02;100490.44;;;15.26;93.46
67029;BME280;53934;52.142;11.738;2022-09-09T01:11:25;100488.59;;;15.16;94.44
67029;BME280;53934;52.142;11.738;2022-09-09T01:13:53;100495.63;;;15.04;94.15
67029;BME280;53934;52.142;11.738;2022-09-09T01:16:23;100494.75;;;15.27;92.48
67029;BME280;53934;52.142;11.738;2022-09-09T01:18:51;100486.81;;;15.16;92.70
67029;BME280;53934;52.142;11.738;2022-09-09T01:21:19;100499.09;;;15.04;93.86
67029;BME280;53934;52.142;11.738;2022-09-09T01:24:03;100501.25;;;14.99;94.27
67029;BME280;53934;52.142;11.738;2022-09-09T01:26:33;100489.34;;;14.94;95.10
67029;BME280;53934;52.142;11.738;2022-09-09T01:29:01;100494.44;;;15.32;92.18
67029;BME280;53934;52.142;11.738;2022-09-09T01:31:28;100490.34;;;15.39;92.05
67029;BME280;53934;52.142;11.738;2022-09-09T01:33:55;100488.22;;;15.09;93.83
67029;BME280;53934;52.142;11.738;2022-09-09T01:36:24;100479.78;;;15.04;94.04
67029;BME280;53934;52.142;11.738;2022-09-09T01:38:52;100484.44;;;15.24;92.83
67029;BME280;53934;52.142;11.738;2022-09-09T01:41:18;100486.47;;;15.21;92.96
67029;BME280;53934;52.142;11.738;2022-09-09T01:43:47;100481.44;;;15.29;92.08
67029;BME280;53934;52.142;11.738;2022-09-09T01:46:13;100484.50;;;15.46;90.80
67029;BME280;53934;52.142;11.738;2022-09-09T01:48:40;100486.44;;;15.44;90.77
67029;BME280;53934;52.142;11.738;2022-09-09T01:51:07;100490.44;;;15.26;91.49
67029;BME280;53934;52.142;11.738;2022-09-09T01:53:34;100493.91;;;14.92;93.97
67029;BME280;53934;52.142;11.738;2022-09-09T01:56:03;100496.75;;;15.13;92.78
67029;BME280;53934;52.142;11.738;2022-09-09T01:58:32;100497.97;;;15.20;92.15
67029;BME280;53934;52.142;11.738;2022-09-09T02:01:02;100492.31;;;15.13;92.42
67029;BME280;53934;52.142;11.738;2022-09-09T02:03:32;100505.41;;;14.91;93.82
67029;BME280;53934;52.142;11.738;2022-09-09T02:06:01;100502.88;;;14.89;94.06
67029;BME280;53934;52.142;11.738;2022-09-09T02:08:33;100492.81;;;15.18;91.98
67029;BME280;53934;52.142;11.738;2022-09-09T02:11:04;100501.59;;;14.95;93.17
67029;BME280;53934;52.142;11.738;2022-09-09T02:13:32;100504.28;;;15.06;93.09
67029;BME280;53934;52.142;11.738;2022-09-09T02:16:03;100498.38;;;14.79;94.45
67029;BME280;53934;52.142;11.738;2022-09-09T02:18:32;100498.19;;;14.82;95.14
67029;BME280;53934;52.142;11.738;2022-09-09T02:21:01;100504.50;;;14.79;95.43
67029;BME280;53934;52.142;11.738;2022-09-09T02:23:28;100497.50;;;14.91;94.32
67029;BME280;53934;52.142;11.738;2022-09-09T02:25:55;100488.16;;;15.22;92.89
67029;BME280;53934;52.142;11.738;2022-09-09T02:28:24;100490.38;;;14.80;94.90
67029;BME280;53934;52.142;11.738;2022-09-09T02:30:52;100492.38;;;14.77;95.11
67029;BME280;53934;52.142;11.738;2022-09-09T02:33:21;100502.28;;;14.49;97.20
67029;BME280;53934;52.142;11.738;2022-09-09T02:35:49;100501.56;;;14.71;96.18
67029;BME280;53934;52.142;11.738;2022-09-09T02:38:16;100495.75;;;15.02;93.21
67029;BME280;53934;52.142;11.738;2022-09-09T02:40:43;100498.81;;;14.85;94.65
67029;BME280;53934;52.142;11.738;2022-09-09T02:43:10;100486.59;;;14.95;94.11
67029;BME280;53934;52.142;11.738;2022-09-09T02:45:38;100489.97;;;14.97;93.84
67029;BME280;53934;52.142;11.738;2022-09-09T02:48:09;100497.50;;;14.91;93.01
67029;BME280;53934;52.142;11.738;2022-09-09T02:50:41;100488.38;;;14.71;94.58
67029;BME280;53934;52.142;11.738;2022-09-09T02:53:09;100487.75;;;14.68;94.66
67029;BME280;53934;52.142;11.738;2022-09-09T02:55:41;100494.56;;;14.59;95.65
67029;BME280;53934;52.142;11.738;2022-09-09T02:58:10;100487.94;;;14.77;94.60
67029;BME280;53934;52.142;11.738;2022-09-09T03:00:37;100496.91;;;14.75;94.62
67029;BME280;53934;52.142;11.738;2022-09-09T03:03:04;100487.63;;;14.82;93.93
67029;BME280;53934;52.142;11.738;2022-09-09T03:05:31;100489.69;;;14.89;93.29
67029;BME280;53934;52.142;11.738;2022-09-09T03:07:59;100488.81;;;14.78;93.46
67029;BME280;53934;52.142;11.738;2022-09-09T03:10:25;100488.25;;;14.85;93.41
67029;BME280;53934;52.142;11.738;2022-09-09T03:12:51;100493.06;;;14.91;91.82
67029;BME280;53934;52.142;11.738;2022-09-09T03:15:18;100486.50;;;14.73;93.29
67029;BME280;53934;52.142;11.738;2022-09-09T03:17:44;100497.91;;;14.74;92.68
67029;BME280;53934;52.142;11.738;2022-09-09T03:20:11;100489.09;;;14.97;91.40
67029;BME280;53934;52.142;11.738;2022-09-09T03:22:37;100492.78;;;15.07;90.16
67029;BME280;53934;52.142;11.738;2022-09-09T03:25:05;100485.84;;;15.17;90.44
67029;BME280;53934;52.142;11.738;2022-09-09T03:27:32;100492.84;;;14.94;89.55
67029;BME280;53934;52.142;11.738;2022-09-09T03:29:58;100503.81;;;14.65;92.96
67029;BME280;53934;52.142;11.738;2022-09-09T03:32:28;100504.81;;;14.51;91.89
67029;BME280;53934;52.142;11.738;2022-09-09T03:34:56;100507.25;;;14.41;94.72
67029;BME280;53934;52.142;11.738;2022-09-09T03:37:22;100505.50;;;14.89;91.46
67029;BME280;53934;52.142;11.738;2022-09-09T03:39:49;100500.28;;;15.24;89.76
67029;BME280;53934;52.142;11.738;2022-09-09T03:42:16;100514.06;;;14.93;90.50
67029;BME280;53934;52.142;11.738;2022-09-09T03:44:44;100510.03;;;14.63;93.07
67029;BME280;53934;52.142;11.738;2022-09-09T03:47:12;100507.94;;;15.16;90.14
67029;BME280;53934;52.142;11.738;2022-09-09T03:49:39;100509.59;;;15.41;88.15
67029;BME280;53934;52.142;11.738;2022-09-09T03:52:05;100502.25;;;15.33;87.65
67029;BME280;53934;52.142;11.738;2022-09-09T03:54:31;100497.16;;;15.30;87.73
67029;BME280;53934;52.142;11.738;2022-09-09T03:56:57;100504.56;;;15.14;88.62
67029;BME280;53934;52.142;11.738;2022-09-09T03:59:25;100499.63;;;15.09;88.74
67029;BME280;53934;52.142;11.738;2022-09-09T04:01:52;100497.44;;;15.38;87.21
67029;BME280;53934;52.142;11.738;2022-09-09T04:04:18;100497.69;;;15.11;88.24
67029;BME280;53934;52.142;11.738;2022-09-09T04:06:45;100504.63;;;14.78;90.48
67029;BME280;53934;52.142;11.738;2022-09-09T04:09:11;100512.81;;;14.86;90.02
67029;BME280;53934;52.142;11.738;2022-09-09T04:11:38;100499.72;;;15.32;87.62
67029;BME280;53934;52.142;11.738;2022-09-09T04:14:04;100510.91;;;15.46;86.30
67029;BME280;53934;52.142;11.738;2022-09-09T04:16:32;100511.03;;;15.91;83.85
67029;BME280;53934;52.142;11.738;2022-09-09T04:18:58;100503.16;;;15.56;85.25
67029;BME280;53934;52.142;11.738;2022-09-09T04:21:26;100510.56;;;15.16;88.49
67029;BME280;53934;52.142;11.738;2022-09-09T04:23:52;100507.94;;;15.16;88.13
67029;BME280;53934;52.142;11.738;2022-09-09T04:26:18;100512.59;;;15.13;88.97
67029;BME280;53934;52.142;11.738;2022-09-09T04:28:45;100516.78;;;14.68;90.38
67029;BME280;53934;52.142;11.738;2022-09-09T04:31:14;100507.31;;;15.13;89.27
67029;BME280;53934;52.142;11.738;2022-09-09T04:33:42;100511.53;;;14.91;89.58
67029;BME280;53934;52.142;11.738;2022-09-09T04:36:08;100516.78;;;14.44;93.54
67029;BME280;53934;52.142;11.738;2022-09-09T04:38:35;100522.97;;;14.55;92.94
67029;BME280;53934;52.142;11.738;2022-09-09T04:41:01;100517.97;;;14.63;92.78
67029;BME280;53934;52.142;11.738;2022-09-09T04:43:27;100513.69;;;14.50;93.62
67029;BME280;53934;52.142;11.738;2022-09-09T04:45:55;100510.19;;;14.62;93.43
67029;BME280;53934;52.142;11.738;2022-09-09T04:48:22;100507.47;;;14.38;94.84
67029;BME280;53934;52.142;11.738;2022-09-09T04:50:57;100516.47;;;13.98;98.36
67029;BME280;53934;52.142;11.738;2022-09-09T04:53:24;100504.03;;;13.87;99.14
67029;BME280;53934;52.142;11.738;2022-09-09T04:55:51;100513.53;;;14.15;98.89
67029;BME280;53934;52.142;11.738;2022-09-09T04:58:17;100512.03;;;13.98;99.46
67029;BME280;53934;52.142;11.738;2022-09-09T05:00:43;100518.03;;;14.38;98.08
67029;BME280;53934;52.142;11.738;2022-09-09T05:03:10;100527.19;;;14.45;96.72
67029;BME280;53934;52.142;11.738;2022-09-09T05:05:37;100532.25;;;14.23;98.85
67029;BME280;53934;52.142;11.738;2022-09-09T05:08:06;100526.22;;;14.34;98.13
67029;BME280;53934;52.142;11.738;2022-09-09T05:10:33;100522.75;;;14.58;96.00
67029;BME280;53934;52.142;11.738;2022-09-09T05:13:00;100528.75;;;14.60;95.43
67029;BME280;53934;52.142;11.738;2022-09-09T05:15:26;100521.03;;;14.70;95.72
67029;BME280;53934;52.142;11.738;2022-09-09T05:17:52;100525.16;;;14.61;96.68
67029;BME280;53934;52.142;11.738;2022-09-09T05:20:18;100516.97;;;15.01;93.66
67029;BME280;53934;52.142;11.738;2022-09-09T05:22:44;100512.31;;;15.28;91.75
67029;BME280;53934;52.142;11.738;2022-09-09T05:25:12;100527.31;;;15.28;91.77
67029;BME280;53934;52.142;11.738;2022-09-09T05:27:38;100522.56;;;15.44;91.54
67029;BME280;53934;52.142;11.738;2022-09-09T05:30:05;100519.03;;;15.67;90.50
67029;BME280;53934;52.142;11.738;2022-09-09T05:32:31;100530.63;;;15.77;89.81
67029;BME280;53934;52.142;11.738;2022-09-09T05:34:59;100535.06;;;15.77;90.02
67029;BME280;53934;52.142;11.738;2022-09-09T05:37:25;100534.84;;;16.02;89.67
67029;BME280;53934;52.142;11.738;2022-09-09T05:39:52;100536.06;;;16.53;86.72
67029;BME280;53934;52.142;11.738;2022-09-09T05:42:19;100542.31;;;16.52;85.96
67029;BME280;53934;52.142;11.738;2022-09-09T05:44:45;100549.53;;;16.50;85.74
67029;BME280;53934;52.142;11.738;2022-09-09T05:47:12;100544.38;;;16.60;86.53
67029;BME280;53934;52.142;11.738;2022-09-09T05:49:38;100553.28;;;16.26;88.00
67029;BME280;53934;52.142;11.738;2022-09-09T05:52:04;100551.47;;;16.60;87.39
67029;BME280;53934;52.142;11.738;2022-09-09T05:54:31;100547.75;;;16.62;86.74
67029;BME280;53934;52.142;11.738;2022-09-09T05:56:57;100547.63;;;16.64;88.06
67029;BME280;53934;52.142;11.738;2022-09-09T05:59:25;100558.72;;;16.58;88.20
67029;BME280;53934;52.142;11.738;2022-09-09T06:01:51;100541.34;;;16.87;85.75
67029;BME280;53934;52.142;11.738;2022-09-09T06:04:18;100551.22;;;16.51;86.76
67029;BME280;53934;52.142;11.738;2022-09-09T06:06:47;100555.69;;;16.29;88.32
67029;BME280;53934;52.142;11.738;2022-09-09T06:09:13;100551.56;;;16.02;89.82
67029;BME280;53934;52.142;11.738;2022-09-09T06:11:40;100553.16;;;16.61;87.86
67029;BME280;53934;52.142;11.738;2022-09-09T06:14:07;100547.16;;;16.59;89.15
67029;BME280;53934;52.142;11.738;2022-09-09T06:16:35;100562.03;;;16.48;87.69
67029;BME280;53934;52.142;11.738;2022-09-09T06:19:02;100554.38;;;16.57;87.90
67029;BME280;53934;52.142;11.738;2022-09-09T06:21:30;100549.56;;;16.62;87.34
67029;BME280;53934;52.142;11.738;2022-09-09T06:23:57;100554.47;;;16.88;86.38
67029;BME280;53934;52.142;11.738;2022-09-09T06:26:24;100560.38;;;16.47;86.42
67029;BME280;53934;52.142;11.738;2022-09-09T06:28:51;100552.25;;;16.93;85.62
67029;BME280;53934;52.142;11.738;2022-09-09T06:31:19;100538.66;;;17.62;82.95
67029;BME280;53934;52.142;11.738;2022-09-09T06:33:48;100536.41;;;17.46;81.55
67029;BME280;53934;52.142;11.738;2022-09-09T06:36:15;100540.78;;;17.68;81.97
67029;BME280;53934;52.142;11.738;2022-09-09T06:38:43;100546.31;;;17.12;84.10
67029;BME280;53934;52.142;11.738;2022-09-09T06:41:09;100543.41;;;17.15;85.95
67029;BME280;53934;52.142;11.738;2022-09-09T06:43:36;100555.81;;;17.15;85.40
67029;BME280;53934;52.142;11.738;2022-09-09T06:46:03;100540.88;;;17.45;84.18
67029;BME280;53934;52.142;11.738;2022-09-09T06:48:30;100550.56;;;17.88;82.69
67029;BME280;53934;52.142;11.738;2022-09-09T06:51:02;100547.31;;;18.66;78.66
67029;BME280;53934;52.142;11.738;2022-09-09T06:53:29;100557.41;;;18.41;80.55
67029;BME280;53934;52.142;11.738;2022-09-09T06:55:56;100549.00;;;18.36;79.31
67029;BME280;53934;52.142;11.738;2022-09-09T06:58:22;100544.97;;;17.49;82.88
67029;BME280;53934;52.142;11.738;2022-09-09T07:00:48;100544.91;;;17.81;81.74
67029;BME280;53934;52.142;11.738;2022-09-09T07:03:14;100553.56;;;18.55;80.55
67029;BME280;53934;52.142;11.738;2022-09-09T07:05:40;100546.09;;;18.70;78.22
67029;BME280;53934;52.142;11.738;2022-09-09T07:08:08;100547.66;;;19.01;76.89
67029;BME280;53934;52.142;11.738;2022-09-09T07:10:34;100550.06;;;19.14;77.83
67029;BME280;53934;52.142;11.738;2022-09-09T07:13:00;100551.63;;;18.67;78.31
67029;BME280;53934;52.142;11.738;2022-09-09T07:15:27;100555.63;;;18.91;78.40
67029;BME280;53934;52.142;11.738;2022-09-09T07:17:53;100556.56;;;19.50;75.67
67029;BME280;53934;52.142;11.738;2022-09-09T07:20:19;100548.94;;;19.74;74.79
67029;BME280;53934;52.142;11.738;2022-09-09T07:22:46;100549.81;;;20.30;73.71
67029;BME280;53934;52.142;11.738;2022-09-09T07:25:13;100550.03;;;20.74;72.61
67029;BME280;53934;52.142;11.738;2022-09-09T07:27:42;100556.34;;;19.99;71.30
67029;BME280;53934;52.142;11.738;2022-09-09T07:30:08;100555.13;;;19.84;73.37
67029;BME280;53934;52.142;11.738;2022-09-09T07:32:34;100561.38;;;20.49;73.13
67029;BME280;53934;52.142;11.738;2022-09-09T07:35:01;100554.84;;;20.33;72.66
67029;BME280;53934;52.142;11.738;2022-09-09T07:37:27;100556.88;;;20.12;74.13
67029;BME280;53934;52.142;11.738;2022-09-09T07:39:53;100546.44;;;19.82;74.60
67029;BME280;53934;52.142;11.738;2022-09-09T07:42:21;100556.13;;;19.54;75.39
67029;BME280;53934;52.142;11.738;2022-09-09T07:44:47;100552.63;;;19.73;75.46
67029;BME280;53934;52.142;11.738;2022-09-09T07:47:13;100552.38;;;19.47;76.89
67029;BME280;53934;52.142;11.738;2022-09-09T07:49:39;100554.03;;;19.58;77.04
67029;BME280;53934;52.142;11.738;2022-09-09T07:52:06;100557.53;;;20.14;76.15
67029;BME280;53934;52.142;11.738;2022-09-09T07:54:32;100560.75;;;20.64;73.95
67029;BME280;53934;52.142;11.738;2022-09-09T07:56:58;100563.16;;;21.48;70.99
67029;BME280;53934;52.142;11.738;2022-09-09T07:59:26;100565.13;;;20.56;70.73
67029;BME280;53934;52.142;11.738;2022-09-09T08:01:54;100567.78;;;20.28;75.41
67029;BME280;53934;52.142;11.738;2022-09-09T08:04:21;100567.97;;;20.99;70.36
67029;BME280;53934;52.142;11.738;2022-09-09T08:06:49;100563.56;;;20.63;71.78
67029;BME280;53934;52.142;11.738;2022-09-09T08:09:15;100572.63;;;20.70;71.02
67029;BME280;53934;52.142;11.738;2022-09-09T08:11:42;100577.69;;;20.26;72.63
67029;BME280;53934;52.142;11.738;2022-09-09T08:14:09;100559.19;;;19.69;73.54
67029;BME280;53934;52.142;11.738;2022-09-09T08:16:38;100577.78;;;19.21;75.61
67029;BME280;53934;52.142;11.738;2022-09-09T08:19:05;100568.72;;;19.62;74.48
67029;BME280;53934;52.142;11.738;2022-09-09T08:21:32;100569.09;;;19.86;74.02
67029;BME280;53934;52.142;11.738;2022-09-09T08:23:59;100575.59;;;19.55;76.02
67029;BME280;53934;52.142;11.738;2022-09-09T08:26:26;100571.66;;;19.49;75.86
67029;BME280;53934;52.142;11.738;2022-09-09T08:28:53;100573.63;;;19.47;75.33
67029;BME280;53934;52.142;11.738;2022-09-09T08:31:21;100571.81;;;20.23;71.26
67029;BME280;53934;52.142;11.738;2022-09-09T08:33:49;100571.00;;;20.59;70.43
67029;BME280;53934;52.142;11.738;2022-09-09T08:36:15;100565.75;;;21.40;68.33
67029;BME280;53934;52.142;11.738;2022-09-09T08:38:42;100571.81;;;21.85;65.98
67029;BME280;53934;52.142;11.738;2022-09-09T08:41:30;100579.78;;;22.88;65.54
67029;BME280;53934;52.142;11.738;2022-09-09T08:44:00;100581.97;;;23.43;59.16
67029;BME280;53934;52.142;11.738;2022-09-09T08:46:29;100577.06;;;22.80;58.95
67029;BME280;53934;52.142;11.738;2022-09-09T08:49:01;100583.50;;;21.66;62.81
67029;BME280;53934;52.142;11.738;2022-09-09T08:51:31;100583.59;;;22.77;62.26
67029;BME280;53934;52.142;11.738;2022-09-09T08:53:58;100573.53;;;24.10;60.63
67029;BME280;53934;52.142;11.738;2022-09-09T08:56:27;100587.56;;;24.53;56.71
67029;BME280;53934;52.142;11.738;2022-09-09T08:58:55;100582.75;;;25.41;53.31
67029;BME280;53934;52.142;11.738;2022-09-09T09:01:26;100580.75;;;26.17;53.00
67029;BME280;53934;52.142;11.738;2022-09-09T09:03:59;100595.50;;;25.16;52.39
67029;BME280;53934;52.142;11.738;2022-09-09T09:06:34;100585.44;;;23.84;55.94
67029;BME280;53934;52.142;11.738;2022-09-09T09:09:03;100583.88;;;23.24;58.75
67029;BME280;53934;52.142;11.738;2022-09-09T09:11:35;100585.78;;;23.81;57.74
67029;BME280;53934;52.142;11.738;2022-09-09T09:14:03;100594.50;;;24.70;53.90
67029;BME280;53934;52.142;11.738;2022-09-09T09:16:32;100595.28;;;25.48;54.27
67029;BME280;53934;52.142;11.738;2022-09-09T09:19:01;100584.41;;;26.25;51.60
67029;BME280;53934;52.142;11.738;2022-09-09T09:21:31;100600.88;;;25.39;52.60
67029;BME280;53934;52.142;11.738;2022-09-09T09:24:02;100594.00;;;24.19;54.07
67029;BME280;53934;52.142;11.738;2022-09-09T09:26:32;100589.31;;;23.73;55.63
67029;BME280;53934;52.142;11.738;2022-09-09T09:28:59;100585.94;;;24.03;55.95
67029;BME280;53934;52.142;11.738;2022-09-09T09:31:28;100594.81;;;25.14;53.73
67029;BME280;53934;52.142;11.738;2022-09-09T09:33:54;100589.34;;;25.07;52.64
67029;BME280;53934;52.142;11.738;2022-09-09T09:36:21;100585.88;;;25.75;49.77
67029;BME280;53934;52.142;11.738;2022-09-09T09:38:53;100581.72;;;25.87;49.56
67029;BME280;53934;52.142;11.738;2022-09-09T09:41:29;100589.22;;;25.01;50.35
67029;BME280;53934;52.142;11.738;2022-09-09T09:43:56;100584.31;;;25.58;49.38
67029;BME280;53934;52.142;11.738;2022-09-09T09:46:23;100588.88;;;25.95;48.76
67029;BME280;53934;52.142;11.738;2022-09-09T09:48:56;100591.03;;;25.08;50.47
67029;BME280;53934;52.142;11.738;2022-09-09T09:51:22;100588.41;;;25.91;49.85
67029;BME280;53934;52.142;11.738;2022-09-09T09:53:50;100583.97;;;26.36;49.83
67029;BME280;53934;52.142;11.738;2022-09-09T09:56:17;100590.28;;;26.05;48.72
67029;BME280;53934;52.142;11.738;2022-09-09T09:58:53;100595.28;;;24.40;53.41
67029;BME280;53934;52.142;11.738;2022-09-09T10:01:20;100591.81;;;24.78;52.14
67029;BME280;53934;52.142;11.738;2022-09-09T10:03:50;100591.16;;;25.38;51.85
67029;BME280;53934;52.142;11.738;2022-09-09T10:06:17;100591.91;;;25.77;50.92
67029;BME280;53934;52.142;11.738;2022-09-09T10:08:44;100597.81;;;25.19;50.18
67029;BME280;53934;52.142;11.738;2022-09-09T10:11:21;100595.81;;;24.82;50.45
67029;BME280;53934;52.142;11.738;2022-09-09T10:13:54;100590.81;;;24.24;52.96
67029;BME280;53934;52.142;11.738;2022-09-09T10:16:28;100587.94;;;24.26;52.85
67029;BME280;53934;52.142;11.738;2022-09-09T10:18:59;100594.84;;;24.75;52.21
67029;BME280;53934;52.142;11.738;2022-09-09T10:21:32;100592.94;;;24.92;51.71
67029;BME280;53934;52.142;11.738;2022-09-09T10:24:08;100597.28;;;24.93;51.92
67029;BME280;53934;52.142;11.738;2022-09-09T10:26:40;100590.78;;;25.18;50.70
67029;BME280;53934;52.142;11.738;2022-09-09T10:29:17;100580.06;;;25.41;50.39
67029;BME280;53934;52.142;11.738;2022-09-09T10:31:51;100594.00;;;25.67;47.08
67029;BME280;53934;52.142;11.738;2022-09-09T10:34:24;100584.44;;;26.02;50.66
67029;BME280;53934;52.142;11.738;2022-09-09T10:36:55;100585.41;;;25.72;50.31
67029;BME280;53934;52.142;11.738;2022-09-09T10:39:26;100574.88;;;26.22;47.64
67029;BME280;53934;52.142;11.738;2022-09-09T10:41:58;100581.28;;;26.50;47.12
67029;BME280;53934;52.142;11.738;2022-09-09T10:44:32;100581.25;;;27.30;46.39
67029;BME280;53934;52.142;11.738;2022-09-09T10:47:12;100577.31;;;27.12;45.04
67029;BME280;53934;52.142;11.738;2022-09-09T10:49:53;100575.50;;;26.68;46.51
67029;BME280;53934;52.142;11.738;2022-09-09T10:52:22;100574.66;;;26.82;46.64
67029;BME280;53934;52.142;11.738;2022-09-09T10:54:53;100579.59;;;26.20;48.16
67029;BME280;53934;52.142;11.738;2022-09-09T10:57:25;100575.03;;;25.83;49.07
67029;BME280;53934;52.142;11.738;2022-09-09T10:59:59;100567.75;;;26.44;47.53
67029;BME280;53934;52.142;11.738;2022-09-09T11:02:30;100575.19;;;26.42;46.41
67029;BME280;53934;52.142;11.738;2022-09-09T11:04:57;100564.41;;;26.56;46.32
67029;BME280;53934;52.142;11.738;2022-09-09T11:07:28;100568.66;;;26.51;47.03
67029;BME280;53934;52.142;11.738;2022-09-09T11:09:59;100567.50;;;25.64;48.78
67029;BME280;53934;52.142;11.738;2022-09-09T11:12:26;100563.50;;;25.60;49.33
67029;BME280;53934;52.142;11.738;2022-09-09T11:14:54;100568.59;;;25.01;49.85
67029;BME280;53934;52.142;11.738;2022-09-09T11:17:24;100564.34;;;25.60;50.83
67029;BME280;53934;52.142;11.738;2022-09-09T11:19:51;100567.34;;;24.73;50.69
67029;BME280;53934;52.142;11.738;2022-09-09T11:22:22;100562.69;;;25.59;53.27
67029;BME280;53934;52.142;11.738;2022-09-09T11:24:54;100563.34;;;25.76;48.29
67029;BME280;53934;52.142;11.738;2022-09-09T11:27:25;100562.00;;;26.47;46.69
67029;BME280;53934;52.142;11.738;2022-09-09T11:30:00;100551.59;;;25.32;47.94
67029;BME280;53934;52.142;11.738;2022-09-09T11:32:34;100569.72;;;25.07;47.55
67029;BME280;53934;52.142;11.738;2022-09-09T11:35:09;100550.69;;;24.94;46.90
67029;BME280;53934;52.142;11.738;2022-09-09T11:37:54;100554.47;;;25.30;47.67
67029;BME280;53934;52.142;11.738;2022-09-09T11:40:27;100561.59;;;25.23;47.44
67029;BME280;53934;52.142;11.738;2022-09-09T11:43:02;100550.03;;;25.68;44.76
67029;BME280;53934;52.142;11.738;2022-09-09T11:45:31;100548.84;;;26.23;45.01
67029;BME280;53934;52.142;11.738;2022-09-09T11:48:00;100552.38;;;26.38;43.59
67029;BME280;53934;52.142;11.738;2022-09-09T11:50:27;100557.44;;;26.18;43.17
67029;BME280;53934;52.142;11.738;2022-09-09T11:53:03;100554.66;;;25.74;45.02
67029;BME280;53934;52.142;11.738;2022-09-09T11:55:31;100542.91;;;25.75;45.40
67029;BME280;53934;52.142;11.738;2022-09-09T11:57:58;100549.69;;;26.23;44.59
67029;BME280;53934;52.142;11.738;2022-09-09T12:00:30;100559.38;;;25.72;46.17
67029;BME280;53934;52.142;11.738;2022-09-09T12:03:00;100559.03;;;24.60;48.34
67029;BME280;53934;52.142;11.738;2022-09-09T12:05:34;100557.41;;;24.43;49.52
67029;BME280;53934;52.142;11.738;2022-09-09T12:08:02;100552.50;;;23.83;49.28
67029;BME280;53934;52.142;11.738;2022-09-09T12:10:29;100549.44;;;24.18;48.58
67029;BME280;53934;52.142;11.738;2022-09-09T12:13:07;100559.00;;;24.68;48.11
67029;BME280;53934;52.142;11.738;2022-09-09T12:15:34;100542.19;;;25.36;47.47
67029;BME280;53934;52.142;11.738;2022-09-09T12:18:01;100554.81;;;25.04;47.50
67029;BME280;53934;52.142;11.738;2022-09-09T12:20:30;100547.38;;;25.37;49.25
67029;BME280;53934;52.142;11.738;2022-09-09T12:23:04;100555.56;;;24.90;46.83
67029;BME280;53934;52.142;11.738;2022-09-09T12:25:34;100554.22;;;24.94;47.33
67029;BME280;53934;52.142;11.738;2022-09-09T12:28:04;100554.91;;;25.42;46.66
67029;BME280;53934;52.142;11.738;2022-09-09T12:30:34;100544.22;;;25.79;44.08
67029;BME280;53934;52.142;11.738;2022-09-09T12:33:08;100546.63;;;26.41;41.87
67029;BME280;53934;52.142;11.738;2022-09-09T12:35:36;100543.38;;;26.31;43.38
67029;BME280;53934;52.142;11.738;2022-09-09T12:38:03;100552.91;;;26.19;44.27
67029;BME280;53934;52.142;11.738;2022-09-09T12:40:32;100554.66;;;25.29;45.00
67029;BME280;53934;52.142;11.738;2022-09-09T12:43:00;100548.22;;;25.15;47.01
67029;BME280;53934;52.142;11.738;2022-09-09T12:45:27;100545.16;;;25.18;46.21
67029;BME280;53934;52.142;11.738;2022-09-09T12:47:56;100553.16;;;25.03;47.16
67029;BME280;53934;52.142;11.738;2022-09-09T12:50:25;100541.53;;;25.34;46.57
67029;BME280;53934;52.142;11.738;2022-09-09T12:52:52;100543.69;;;25.61;45.86